createdAt,value
2023-04-25T00:00:43.399Z,3.77
2023-04-25T00:02:47.692Z,5.03
2023-04-25T00:04:51.564Z,5.63
2023-04-25T00:06:55.442Z,8.93
2023-04-25T00:09:00.346Z,5.30
2023-04-25T00:11:03.837Z,7.70
2023-04-25T00:13:07.495Z,4.43
2023-04-25T00:15:11.994Z,4.70
2023-04-25T00:17:15.264Z,5.50
2023-04-25T00:19:18.751Z,5.90
2023-04-25T00:21:22.307Z,4.77
2023-04-25T00:23:25.580Z,5.03
2023-04-25T00:25:30.514Z,4.20
2023-04-25T00:27:33.857Z,4.38
2023-04-25T00:29:37.165Z,9.50
2023-04-25T00:31:40.652Z,4.10
2023-04-25T00:33:44.045Z,4.10
2023-04-25T00:35:47.288Z,20.33
2023-04-25T00:37:50.700Z,5.90
2023-04-25T00:39:54.735Z,9.23
2023-04-25T00:42:00.589Z,4.27
2023-04-25T00:44:04.447Z,3.40
2023-04-25T00:46:07.973Z,4.78
2023-04-25T00:48:11.679Z,4.53
2023-04-25T00:50:15.501Z,3.53
2023-04-25T00:52:19.520Z,4.57
2023-04-25T00:54:22.954Z,7.90
2023-04-25T00:56:26.797Z,3.67
2023-04-25T00:58:32.018Z,3.42
2023-04-25T01:00:35.868Z,4.65
2023-04-25T01:02:40.472Z,5.22
2023-04-25T01:04:43.890Z,4.03
2023-04-25T01:06:47.627Z,3.97
2023-04-25T01:08:51.221Z,7.22
2023-04-25T01:10:54.435Z,7.82
2023-04-25T01:12:57.931Z,3.28
2023-04-25T01:15:03.041Z,3.20
2023-04-25T01:17:06.860Z,4.82
2023-04-25T01:19:13.382Z,3.17
2023-04-25T01:21:18.588Z,2.80
2023-04-25T01:23:22.380Z,2.47
2023-04-25T01:25:26.181Z,4.30
2023-04-25T01:27:30.186Z,4.32
2023-04-25T01:29:34.973Z,2.97
2023-04-25T01:31:39.883Z,2.30
2023-04-25T01:33:43.371Z,2.88
2023-04-25T01:35:46.915Z,2.85
2023-04-25T01:37:51.924Z,2.90
2023-04-25T01:39:55.682Z,10.60
2023-04-25T01:42:00.142Z,3.67
2023-04-25T01:44:03.738Z,2.22
2023-04-25T01:46:07.281Z,4.20
2023-04-25T01:48:11.033Z,8.20
2023-04-25T01:50:14.505Z,4.03
2023-04-25T01:52:18.045Z,7.00
2023-04-25T01:54:23.158Z,4.50
2023-04-25T01:56:26.781Z,2.72
2023-04-25T01:58:30.143Z,2.25
2023-04-25T02:00:33.535Z,3.13
2023-04-25T02:02:37.108Z,3.35
2023-04-25T02:04:40.661Z,2.10
2023-04-25T02:06:44.070Z,3.22
2023-04-25T02:08:47.374Z,2.60
2023-04-25T02:10:51.933Z,3.17
2023-04-25T02:12:55.261Z,1.77
2023-04-25T02:14:58.636Z,2.70
2023-04-25T02:17:02.193Z,2.28
2023-04-25T02:19:05.955Z,4.68
2023-04-25T02:21:09.466Z,12.48
2023-04-25T02:23:13.106Z,8.32
2023-04-25T02:25:17.029Z,2.33
2023-04-25T02:27:21.938Z,2.47
2023-04-25T02:29:25.724Z,3.22
2023-04-25T02:31:29.309Z,2.42
2023-04-25T02:33:32.629Z,7.75
2023-04-25T02:35:36.136Z,2.05
2023-04-25T02:37:40.551Z,5.15
2023-04-25T02:39:43.936Z,1.65
2023-04-25T02:41:47.358Z,2.30
2023-04-25T02:43:52.377Z,1.80
2023-04-25T02:45:56.260Z,2.40
2023-04-25T02:47:59.866Z,1.60
2023-04-25T02:50:03.456Z,1.60
2023-04-25T02:52:07.067Z,3.63
2023-04-25T02:54:10.976Z,2.15
2023-04-25T02:56:14.308Z,2.20
2023-04-25T02:58:18.254Z,2.90
2023-04-25T03:00:23.285Z,4.85
2023-04-25T03:02:26.953Z,4.65
2023-04-25T03:04:30.684Z,3.70
2023-04-25T03:06:34.021Z,3.38
2023-04-25T03:08:37.336Z,4.65
2023-04-25T03:10:41.378Z,3.58
2023-04-25T03:12:44.998Z,3.25
2023-04-25T03:14:48.653Z,4.32
2023-04-25T03:16:53.418Z,2.78
2023-04-25T03:18:56.927Z,1.75
2023-04-25T03:21:00.633Z,1.95
2023-04-25T03:23:03.867Z,2.13
2023-04-25T03:25:08.842Z,2.20
2023-04-25T03:27:12.196Z,1.85
2023-04-25T03:29:15.585Z,2.83
2023-04-25T03:31:18.890Z,3.05
2023-04-25T03:33:23.811Z,2.40
2023-04-25T03:35:27.238Z,4.82
2023-04-25T03:37:30.589Z,1.65
2023-04-25T03:39:33.726Z,1.88
2023-04-25T03:41:37.048Z,1.60
2023-04-25T03:43:40.542Z,2.10
2023-04-25T03:45:43.905Z,1.90
2023-04-25T03:47:47.330Z,1.88
2023-04-25T03:49:52.885Z,4.45
2023-04-25T03:51:56.164Z,4.30
2023-04-25T03:53:59.661Z,5.55
2023-04-25T03:56:02.898Z,4.75
2023-04-25T03:58:06.172Z,5.68
2023-04-25T04:00:11.409Z,4.10
2023-04-25T04:02:14.798Z,3.30
2023-04-25T04:04:18.560Z,6.72
2023-04-25T04:06:23.392Z,6.65
2023-04-25T04:08:26.803Z,5.45
2023-04-25T04:10:30.198Z,3.45
2023-04-25T04:12:33.436Z,2.70
2023-04-25T04:14:36.693Z,7.05
2023-04-25T04:16:40.109Z,4.28
2023-04-25T04:18:43.353Z,3.90
2023-04-25T04:20:46.679Z,5.22
2023-04-25T04:22:51.696Z,4.20
2023-04-25T04:24:55.297Z,10.45
2023-04-25T04:26:58.900Z,3.38
2023-04-25T04:29:02.488Z,7.60
2023-04-25T04:31:06.282Z,4.78
2023-04-25T04:33:09.872Z,5.07
2023-04-25T04:35:13.148Z,4.38
2023-04-25T04:37:16.629Z,3.05
2023-04-25T04:39:21.504Z,2.63
2023-04-25T04:41:24.794Z,3.00
2023-04-25T04:43:29.936Z,3.35
2023-04-25T04:45:33.238Z,2.80
2023-04-25T04:47:37.979Z,3.90
2023-04-25T04:49:41.394Z,3.15
2023-04-25T04:51:45.597Z,2.20
2023-04-25T04:53:49.200Z,2.35
2023-04-25T04:55:54.116Z,6.15
2023-04-25T04:57:57.338Z,2.65
2023-04-25T05:00:00.997Z,1.88
2023-04-25T05:02:04.239Z,2.13
2023-04-25T05:04:08.487Z,4.97
2023-04-25T05:06:11.970Z,4.05
2023-04-25T05:08:15.742Z,2.25
2023-04-25T05:10:19.720Z,2.33
2023-04-25T05:12:24.604Z,1.98
2023-04-25T05:14:27.829Z,2.35
2023-04-25T05:16:31.374Z,4.05
2023-04-25T05:18:34.683Z,1.98
2023-04-25T05:20:38.428Z,3.65
2023-04-25T05:22:42.786Z,5.70
2023-04-25T05:24:46.248Z,1.50
2023-04-25T05:26:49.719Z,4.80
2023-04-25T05:28:54.444Z,2.85
2023-04-25T05:30:57.756Z,1.60
2023-04-25T05:33:01.715Z,2.70
2023-04-25T05:35:05.617Z,2.13
2023-04-25T05:37:10.366Z,1.80
2023-04-25T05:39:13.698Z,3.30
2023-04-25T05:41:17.276Z,1.63
2023-04-25T05:43:20.599Z,2.30
2023-04-25T05:45:25.427Z,1.40
2023-04-25T05:47:28.874Z,1.07
2023-04-25T05:49:32.133Z,1.37
2023-04-25T05:51:35.499Z,2.73
2023-04-25T05:53:38.841Z,2.70
2023-04-25T05:55:42.160Z,3.20
2023-04-25T05:57:46.352Z,2.80
2023-04-25T05:59:49.573Z,3.87
2023-04-25T06:01:54.550Z,1.50
2023-04-25T06:03:58.052Z,2.63
2023-04-25T06:06:01.683Z,1.37
2023-04-25T06:08:05.348Z,1.90
2023-04-25T06:10:10.308Z,1.53
2023-04-25T06:12:13.628Z,1.70
2023-04-25T06:14:17.169Z,1.60
2023-04-25T06:16:20.707Z,1.00
2023-04-25T06:18:25.629Z,1.80
2023-04-25T06:20:29.272Z,6.40
2023-04-25T06:22:32.717Z,1.27
2023-04-25T06:24:37.133Z,1.23
2023-04-25T06:26:40.610Z,1.77
2023-04-25T06:28:43.902Z,1.37
2023-04-25T06:30:47.295Z,1.83
2023-04-25T06:32:50.789Z,1.23
2023-04-25T06:34:55.555Z,1.30
2023-04-25T06:36:58.841Z,1.87
2023-04-25T06:39:02.321Z,2.13
2023-04-25T06:41:06.000Z,1.47
2023-04-25T06:43:09.393Z,5.23
2023-04-25T06:45:13.069Z,1.43
2023-04-25T06:47:17.505Z,1.33
2023-04-25T06:49:20.810Z,1.87
2023-04-25T06:51:25.836Z,1.03
2023-04-25T06:53:29.124Z,1.93
2023-04-25T06:55:32.571Z,1.37
2023-04-25T06:57:35.808Z,1.67
2023-04-25T06:59:39.081Z,1.10
2023-04-25T07:01:42.380Z,1.70
2023-04-25T07:03:45.939Z,1.40
2023-04-25T07:05:49.350Z,1.37
2023-04-25T07:07:54.236Z,0.90
2023-04-25T07:09:57.569Z,1.50
2023-04-25T07:12:02.251Z,0.80
2023-04-25T07:14:06.220Z,1.90
2023-04-25T07:16:09.745Z,0.73
2023-04-25T07:18:13.152Z,2.30
2023-04-25T07:20:17.272Z,1.57
2023-04-25T07:22:20.584Z,0.80
2023-04-25T07:24:25.208Z,2.43
2023-04-25T07:26:28.727Z,1.40
2023-04-25T07:28:32.127Z,1.00
2023-04-25T07:30:35.977Z,1.00
2023-04-25T07:32:39.308Z,0.80
2023-04-25T07:34:42.857Z,1.50
2023-04-25T07:36:46.174Z,0.90
2023-04-25T07:38:50.245Z,1.00
2023-04-25T07:40:55.132Z,1.63
2023-04-25T07:42:58.846Z,1.20
2023-04-25T07:45:02.886Z,0.97
2023-04-25T07:47:06.930Z,2.23
2023-04-25T07:49:11.210Z,1.10
2023-04-25T07:51:14.741Z,1.17
2023-04-25T07:53:19.969Z,1.03
2023-04-25T07:55:23.726Z,1.00
2023-04-25T07:57:28.940Z,1.03
2023-04-25T07:59:32.307Z,1.50
2023-04-25T08:01:36.596Z,2.60
2023-04-25T08:03:40.309Z,1.57
2023-04-25T08:05:44.006Z,0.87
2023-04-25T08:07:47.568Z,1.83
2023-04-25T08:09:51.031Z,1.40
2023-04-25T08:11:54.449Z,0.97
2023-04-25T08:13:59.222Z,1.97
2023-04-25T08:16:02.529Z,1.10
2023-04-25T08:18:06.558Z,1.67
2023-04-25T08:20:11.201Z,2.27
2023-04-25T08:22:15.911Z,4.53
2023-04-25T08:24:19.211Z,1.13
2023-04-25T08:26:22.677Z,2.10
2023-04-25T08:28:26.298Z,1.60
2023-04-25T08:30:31.116Z,1.17
2023-04-25T08:32:34.942Z,0.90
2023-04-25T08:34:40.528Z,1.40
2023-04-25T08:36:43.927Z,2.90
2023-04-25T08:38:47.710Z,2.90
2023-04-25T08:40:52.897Z,1.73
2023-04-25T08:42:56.755Z,3.83
2023-04-25T08:45:02.228Z,1.33
2023-04-25T08:47:08.054Z,1.77
2023-04-25T08:49:11.781Z,1.13
2023-04-25T08:51:23.137Z,2.50
2023-04-25T08:53:29.450Z,2.43
2023-04-25T08:55:33.740Z,2.80
2023-04-25T08:57:37.716Z,1.10
2023-04-25T08:59:46.830Z,1.93
2023-04-25T09:01:51.326Z,1.80
2023-04-25T09:03:59.202Z,1.77
2023-04-25T09:06:03.571Z,1.87
2023-04-25T09:08:07.231Z,1.37
2023-04-25T09:10:11.728Z,1.20
2023-04-25T09:12:15.321Z,1.63
2023-04-25T09:14:21.550Z,1.00
2023-04-25T09:16:25.244Z,1.53
2023-04-25T09:18:30.256Z,1.10
2023-04-25T09:21:00.846Z,2.33
2023-04-25T09:23:08.257Z,1.63
2023-04-25T09:25:13.597Z,6.07
2023-04-25T09:27:24.056Z,2.10
2023-04-25T09:29:32.522Z,1.43
2023-04-25T09:31:36.143Z,1.60
2023-04-25T09:33:40.243Z,0.93
2023-04-25T09:35:46.185Z,1.63
2023-04-25T09:37:49.626Z,4.10
2023-04-25T09:39:56.453Z,2.47
2023-04-25T09:41:59.957Z,1.90
2023-04-25T09:44:03.703Z,6.90
2023-04-25T09:46:12.384Z,1.90
2023-04-25T09:48:21.182Z,1.20
2023-04-25T09:50:25.983Z,1.83
2023-04-25T09:52:31.505Z,3.13
2023-04-25T09:54:34.854Z,1.70
2023-04-25T09:56:39.355Z,1.83
2023-04-25T09:58:43.137Z,1.20
2023-04-25T10:00:46.714Z,1.00
2023-04-25T10:02:51.473Z,2.03
2023-04-25T10:04:56.295Z,4.50
2023-04-25T10:07:01.447Z,1.37
2023-04-25T10:09:08.800Z,2.43
2023-04-25T10:11:15.450Z,1.40
2023-04-25T10:13:19.027Z,0.93
2023-04-25T10:15:23.510Z,1.67
2023-04-25T10:17:28.443Z,3.33
2023-04-25T10:19:31.945Z,5.53
2023-04-25T10:21:36.009Z,1.27
2023-04-25T10:23:40.456Z,2.10
2023-04-25T10:25:45.660Z,1.67
2023-04-25T10:27:48.933Z,1.63
2023-04-25T10:30:05.486Z,2.77
2023-04-25T10:32:10.226Z,3.23
2023-04-25T10:34:13.656Z,1.00
2023-04-25T10:36:20.033Z,1.60
2023-04-25T10:38:23.367Z,3.33
2023-04-25T10:40:26.865Z,1.70
2023-04-25T10:42:32.613Z,1.13
2023-04-25T10:44:36.359Z,0.80
2023-04-25T10:46:40.034Z,1.17
2023-04-25T10:48:50.345Z,0.70
2023-04-25T10:51:10.660Z,0.80
2023-04-25T10:53:17.878Z,1.53
2023-04-25T10:55:22.744Z,1.10
2023-04-25T10:57:31.564Z,3.33
2023-04-25T10:59:34.895Z,2.63
2023-04-25T11:01:42.776Z,1.30
2023-04-25T11:03:46.585Z,1.40
2023-04-25T11:05:58.101Z,2.97
2023-04-25T11:08:08.300Z,1.20
2023-04-25T11:10:11.988Z,1.67
2023-04-25T11:12:16.015Z,1.27
2023-04-25T11:14:22.837Z,1.47
2023-04-25T11:16:28.269Z,1.70
2023-04-25T11:18:34.157Z,1.43
2023-04-25T11:20:37.420Z,2.47
2023-04-25T11:22:42.914Z,1.40
2023-04-25T11:24:47.923Z,3.57
2023-04-25T11:26:52.118Z,2.20
2023-04-25T11:29:00.550Z,2.53
2023-04-25T11:31:07.095Z,1.63
2023-04-25T11:33:12.493Z,1.97
2023-04-25T11:35:19.150Z,1.10
2023-04-25T11:37:22.616Z,2.10
2023-04-25T11:39:29.909Z,2.70
2023-04-25T11:41:33.597Z,1.60
2023-04-25T11:43:36.973Z,1.77
2023-04-25T11:45:40.622Z,1.27
2023-04-25T11:47:47.781Z,1.50
2023-04-25T11:49:57.736Z,4.53
2023-04-25T11:52:04.728Z,6.10
2023-04-25T11:54:08.161Z,2.13
2023-04-25T11:56:13.967Z,2.73
2023-04-25T11:58:17.607Z,1.80
2023-04-25T12:00:23.693Z,1.67
2023-04-25T12:02:28.118Z,1.87
2023-04-25T12:04:34.441Z,1.23
2023-04-25T12:06:41.612Z,4.23
2023-04-25T12:09:04.613Z,1.37
2023-04-25T12:11:22.329Z,2.43
2023-04-25T12:13:26.996Z,2.07
2023-04-25T12:15:30.542Z,1.33
2023-04-25T12:17:34.044Z,1.43
2023-04-25T12:19:41.792Z,1.53
2023-04-25T12:21:57.126Z,1.80
2023-04-25T12:24:12.972Z,3.23
2023-04-25T12:26:17.999Z,1.13
2023-04-25T12:28:24.780Z,1.00
2023-04-25T12:30:28.256Z,1.63
2023-04-25T12:32:32.001Z,1.53
2023-04-25T12:34:36.981Z,0.97
2023-04-25T12:36:42.120Z,1.37
2023-04-25T12:38:45.648Z,1.30
2023-04-25T12:40:49.114Z,1.30
2023-04-25T12:42:52.679Z,1.87
2023-04-25T12:44:56.020Z,1.53
2023-04-25T12:47:01.042Z,1.47
2023-04-25T12:49:17.212Z,1.57
2023-04-25T12:51:25.945Z,2.33
2023-04-25T12:53:32.269Z,2.50
2023-04-25T12:55:36.984Z,2.20
2023-04-25T12:57:40.529Z,2.10
2023-04-25T12:59:43.996Z,2.10
2023-04-25T13:01:47.538Z,1.47
2023-04-25T13:03:52.579Z,1.27
2023-04-25T13:05:56.449Z,0.97
2023-04-25T13:08:00.631Z,2.33
2023-04-25T13:10:06.795Z,1.20
2023-04-25T13:12:10.522Z,1.30
2023-04-25T13:14:13.995Z,0.80
2023-04-25T13:16:17.362Z,2.30
2023-04-25T13:18:21.309Z,1.87
2023-04-25T13:20:24.894Z,1.57
2023-04-25T13:22:28.856Z,1.50
2023-04-25T13:24:32.469Z,1.40
2023-04-25T13:26:38.210Z,1.70
2023-04-25T13:28:43.632Z,1.40
2023-04-25T13:30:49.149Z,1.27
2023-04-25T13:32:53.415Z,1.60
2023-04-25T13:34:57.049Z,1.93
2023-04-25T13:37:01.488Z,1.30
2023-04-25T13:39:05.950Z,1.13
2023-04-25T13:41:09.272Z,1.93
2023-04-25T13:43:14.127Z,1.47
2023-04-25T13:45:17.687Z,2.70
2023-04-25T13:47:21.210Z,1.23
2023-04-25T13:49:25.031Z,2.47
2023-04-25T13:51:28.478Z,3.10
2023-04-25T13:53:31.850Z,1.77
2023-04-25T13:55:37.460Z,1.83
2023-04-25T13:57:41.451Z,2.70
2023-04-25T13:59:46.795Z,1.00
2023-04-25T14:01:51.263Z,1.00
2023-04-25T14:03:54.922Z,3.23
2023-04-25T14:05:58.670Z,2.40
2023-04-25T14:08:02.428Z,3.00
2023-04-25T14:10:07.177Z,2.37
2023-04-25T14:12:14.319Z,1.47
2023-04-25T14:14:20.173Z,1.10
2023-04-25T14:16:28.254Z,1.83
2023-04-25T14:18:34.733Z,1.10
2023-04-25T14:20:42.345Z,3.50
2023-04-25T14:22:47.327Z,0.97
2023-04-25T14:24:54.963Z,1.60
2023-04-25T14:27:02.358Z,2.03
2023-04-25T14:29:11.224Z,1.90
2023-04-25T14:31:20.459Z,2.50
2023-04-25T14:35:56.321Z,6.03
2023-04-25T14:38:08.560Z,1.80
2023-04-25T14:40:19.391Z,1.30
2023-04-25T14:42:26.679Z,1.43
2023-04-25T14:44:36.071Z,2.53
2023-04-25T14:46:45.556Z,2.83
2023-04-25T14:49:13.655Z,3.17
2023-04-25T14:51:21.206Z,1.93
2023-04-25T14:53:26.628Z,1.30
2023-04-25T14:55:31.116Z,1.40
2023-04-25T14:57:37.134Z,1.40
2023-04-25T14:59:41.049Z,3.27
2023-04-25T15:01:44.976Z,1.70
2023-04-25T15:03:48.600Z,1.10
2023-04-25T15:05:53.956Z,1.27
2023-04-25T15:07:57.917Z,1.03
2023-04-25T15:10:01.341Z,1.13
2023-04-25T15:12:04.956Z,1.00
2023-04-25T15:14:08.284Z,1.40
2023-04-25T15:16:12.792Z,1.13
2023-04-25T15:18:16.935Z,1.00
2023-04-25T15:20:20.387Z,1.37
2023-04-25T15:22:25.687Z,1.63
2023-04-25T15:24:29.050Z,3.80
2023-04-25T15:26:32.338Z,1.23
2023-04-25T15:28:35.983Z,1.50
2023-04-25T15:30:39.766Z,1.10
2023-04-25T15:32:43.613Z,1.50
2023-04-25T15:34:46.981Z,1.27
2023-04-25T15:36:50.378Z,1.93
2023-04-25T15:38:55.442Z,2.07
2023-04-25T15:40:58.883Z,2.30
2023-04-25T15:43:02.125Z,1.40
2023-04-25T15:45:06.212Z,1.93
2023-04-25T15:47:09.894Z,3.90
2023-04-25T15:49:13.288Z,1.77
2023-04-25T15:51:17.284Z,4.13
2023-04-25T15:53:20.812Z,1.93
2023-04-25T15:55:27.002Z,0.90
2023-04-25T15:57:30.597Z,0.90
2023-04-25T15:59:34.581Z,1.77
2023-04-25T16:01:38.120Z,2.67
2023-04-25T16:03:41.755Z,1.10
2023-04-25T16:05:45.201Z,1.07
2023-04-25T16:07:48.884Z,1.10
2023-04-25T16:09:53.401Z,2.20
2023-04-25T16:11:59.375Z,0.80
2023-04-25T16:14:02.754Z,2.23
2023-04-25T16:16:06.521Z,1.20
2023-04-25T16:18:09.849Z,1.77
2023-04-25T16:20:14.089Z,1.20
2023-04-25T16:22:17.480Z,1.47
2023-04-25T16:24:20.936Z,1.27
2023-04-25T16:26:24.221Z,1.10
2023-04-25T16:28:28.970Z,1.20
2023-04-25T16:30:32.403Z,0.90
2023-04-25T16:32:35.915Z,1.00
2023-04-25T16:34:39.243Z,1.57
2023-04-25T16:36:42.671Z,2.40
2023-04-25T16:38:53.609Z,1.70
2023-04-25T16:40:57.251Z,3.50
2023-04-25T16:43:00.957Z,2.10
2023-04-25T16:45:06.973Z,2.23
2023-04-25T16:47:11.605Z,1.00
2023-04-25T16:49:16.755Z,3.37
2023-04-25T16:51:20.357Z,2.63
2023-04-25T16:53:28.520Z,9.90
2023-04-25T16:55:32.834Z,2.67
2023-04-25T16:57:37.055Z,3.07
2023-04-25T16:59:44.520Z,2.90
2023-04-25T17:01:54.978Z,3.27
2023-04-25T17:04:02.096Z,1.60
2023-04-25T17:06:06.165Z,1.00
2023-04-25T17:08:09.600Z,2.73
2023-04-25T17:10:13.398Z,1.00
2023-04-25T17:12:23.349Z,1.27
2023-04-25T17:14:28.647Z,1.70
2023-04-25T17:16:38.767Z,4.77
2023-04-25T17:18:48.256Z,1.17
2023-04-25T17:20:54.225Z,1.53
2023-04-25T17:22:58.297Z,1.13
2023-04-25T17:25:02.353Z,1.00
2023-04-25T17:27:06.048Z,0.87
2023-04-25T17:29:09.854Z,0.90
2023-04-25T17:31:13.528Z,1.13
2023-04-25T17:33:17.202Z,1.77
2023-04-25T17:35:24.190Z,1.70
2023-04-25T17:37:28.821Z,1.20
2023-04-25T17:39:32.498Z,0.90
2023-04-25T17:41:35.912Z,0.70
2023-04-25T17:43:39.300Z,3.03
2023-04-25T17:45:42.817Z,0.70
2023-04-25T17:47:46.848Z,1.07
2023-04-25T17:49:50.547Z,1.83
2023-04-25T17:51:56.023Z,5.17
2023-04-25T17:54:00.289Z,0.90
2023-04-25T17:56:05.376Z,0.90
2023-04-25T17:58:11.395Z,0.83
2023-04-25T18:00:16.351Z,3.70
2023-04-25T18:02:20.031Z,6.10
2023-04-25T18:04:23.748Z,1.80
2023-04-25T18:06:28.700Z,1.20
2023-04-25T18:08:33.857Z,3.10
2023-04-25T18:10:41.627Z,1.40
2023-04-25T18:12:45.110Z,1.00
2023-04-25T18:14:48.460Z,4.30
2023-04-25T18:16:53.798Z,1.50
2023-04-25T18:19:05.285Z,1.33
2023-04-25T18:21:09.322Z,1.00
2023-04-25T18:23:13.479Z,1.30
2023-04-25T18:25:18.330Z,1.37
2023-04-25T18:27:24.819Z,4.57
2023-04-25T18:29:33.428Z,2.53
2023-04-25T18:31:37.908Z,1.00
2023-04-25T18:33:41.805Z,1.57
2023-04-25T18:35:55.294Z,2.27
2023-04-25T18:38:01.588Z,0.87
2023-04-25T18:40:08.728Z,2.03
2023-04-25T18:42:13.861Z,1.40
2023-04-25T18:44:17.459Z,1.13
2023-04-25T18:46:22.640Z,1.10
2023-04-25T18:48:26.478Z,1.87
2023-04-25T18:50:32.458Z,0.93
2023-04-25T18:52:36.097Z,1.80
2023-04-25T18:54:39.755Z,3.47
2023-04-25T18:56:43.262Z,1.90
2023-04-25T18:58:47.974Z,1.00
2023-04-25T19:00:51.669Z,1.83
2023-04-25T19:02:56.106Z,1.40
2023-04-25T19:04:59.522Z,0.80
2023-04-25T19:07:03.673Z,1.20
2023-04-25T19:09:07.922Z,2.90
2023-04-25T19:11:20.983Z,1.40
2023-04-25T19:13:24.821Z,1.70
2023-04-25T19:15:29.597Z,3.33
2023-04-25T19:17:33.013Z,1.20
2023-04-25T19:19:36.381Z,1.40
2023-04-25T19:21:40.155Z,1.60
2023-04-25T19:23:44.037Z,1.07
2023-04-25T19:25:47.477Z,0.83
2023-04-25T19:27:53.199Z,2.00
2023-04-25T19:30:07.854Z,1.00
2023-04-25T19:32:13.322Z,0.93
2023-04-25T19:34:16.964Z,1.53
2023-04-25T19:36:22.530Z,0.90
2023-04-25T19:38:25.985Z,3.03
2023-04-25T19:40:29.510Z,1.83
2023-04-25T19:42:33.297Z,1.10
2023-04-25T19:44:37.096Z,0.90
2023-04-25T19:46:41.288Z,3.07
2023-04-25T19:48:47.277Z,2.63
2023-04-25T19:50:51.441Z,2.47
2023-04-25T19:52:57.819Z,3.63
2023-04-25T19:55:07.786Z,5.83
2023-04-25T19:57:14.011Z,3.40
2023-04-25T19:59:18.051Z,2.20
2023-04-25T20:01:24.095Z,1.70
2023-04-25T20:03:30.754Z,1.30
2023-04-25T20:05:38.756Z,0.90
2023-04-25T20:07:42.174Z,1.25
2023-04-25T20:09:45.744Z,1.35
2023-04-25T20:11:49.542Z,0.90
2023-04-25T20:13:53.586Z,0.90
2023-04-25T20:16:01.267Z,0.70
2023-04-25T20:18:06.829Z,1.08
2023-04-25T20:20:12.024Z,0.90
2023-04-25T20:22:17.674Z,3.38
2023-04-25T20:24:23.853Z,0.98
2023-04-25T20:26:27.661Z,0.90
2023-04-25T20:28:34.935Z,1.77
2023-04-25T20:30:38.949Z,1.30
2023-04-25T20:32:44.837Z,1.33
2023-04-25T20:34:48.670Z,5.65
2023-04-25T20:36:53.126Z,6.03
2023-04-25T20:38:58.153Z,9.75
2023-04-25T20:41:01.885Z,10.23
2023-04-25T20:43:05.969Z,6.25
2023-04-25T20:45:13.677Z,4.53
2023-04-25T20:47:17.972Z,2.50
2023-04-25T20:49:21.792Z,1.00
2023-04-25T20:51:25.463Z,1.35
2023-04-25T20:53:29.299Z,1.83
2023-04-25T20:55:35.411Z,2.75
2023-04-25T20:57:39.648Z,1.67
2023-04-25T20:59:43.508Z,3.47
2023-04-25T21:01:47.197Z,2.33
2023-04-25T21:03:51.903Z,3.90
2023-04-25T21:05:56.859Z,5.32
2023-04-25T21:08:03.015Z,4.63
2023-04-25T21:10:07.587Z,3.05
2023-04-25T21:12:13.115Z,3.33
2023-04-25T21:14:17.089Z,3.10
2023-04-25T21:16:21.421Z,3.22
2023-04-25T21:18:25.138Z,2.33
2023-04-25T21:20:29.016Z,4.10
2023-04-25T21:22:32.656Z,5.43
2023-04-25T21:24:36.237Z,9.48
2023-04-25T21:26:40.154Z,8.32
2023-04-25T21:28:47.031Z,6.00
2023-04-25T21:30:50.705Z,3.65
2023-04-25T21:32:55.116Z,4.90
2023-04-25T21:34:59.189Z,5.72
2023-04-25T21:37:03.661Z,4.35
2023-04-25T21:39:07.414Z,3.83
2023-04-25T21:41:11.052Z,4.13
2023-04-25T21:43:17.433Z,2.40
2023-04-25T21:45:23.080Z,2.63
2023-04-25T21:47:26.699Z,3.90
2023-04-25T21:49:30.881Z,7.95
2023-04-25T21:51:37.642Z,3.15
2023-04-25T21:53:42.367Z,3.03
2023-04-25T21:55:46.054Z,6.00
2023-04-25T21:57:49.662Z,6.05
2023-04-25T21:59:53.665Z,3.78
2023-04-25T22:01:58.670Z,6.60
2023-04-25T22:04:02.256Z,4.68
2023-04-25T22:06:05.924Z,4.35
2023-04-25T22:08:09.851Z,5.30
2023-04-25T22:10:13.699Z,4.28
2023-04-25T22:12:17.508Z,5.95
2023-04-25T22:14:21.132Z,7.18
2023-04-25T22:16:27.964Z,8.65
2023-04-25T22:18:33.478Z,7.85
2023-04-25T22:20:37.886Z,9.82
2023-04-25T22:22:42.160Z,11.90
2023-04-25T22:24:47.486Z,6.80
2023-04-25T22:26:51.032Z,4.45
2023-04-25T22:28:54.990Z,3.90
2023-04-25T22:30:59.417Z,3.67
2023-04-25T22:33:03.581Z,4.82
2023-04-25T22:35:10.619Z,2.50
2023-04-25T22:37:15.377Z,5.72
2023-04-25T22:39:19.491Z,10.32
2023-04-25T22:41:23.852Z,4.43
2023-04-25T22:43:29.172Z,4.55
2023-04-25T22:45:33.196Z,2.65
2023-04-25T22:47:37.301Z,2.13
2023-04-25T22:49:41.051Z,6.07
2023-04-25T22:51:46.023Z,7.38
2023-04-25T22:53:49.805Z,8.27
2023-04-25T22:55:58.492Z,5.25
2023-04-25T22:58:02.703Z,17.95
2023-04-25T23:00:15.875Z,12.05
2023-04-25T23:02:19.554Z,9.68
2023-04-25T23:04:23.552Z,9.52
2023-04-25T23:06:27.386Z,7.03
2023-04-25T23:08:33.397Z,17.30
2023-04-25T23:10:37.217Z,16.05
2023-04-25T23:12:41.424Z,15.30
2023-04-25T23:14:45.302Z,12.23
2023-04-25T23:16:48.877Z,17.35
2023-04-25T23:18:52.806Z,14.57
2023-04-25T23:20:56.663Z,7.68
2023-04-25T23:23:00.532Z,5.20
2023-04-25T23:25:07.722Z,5.30
2023-04-25T23:27:11.324Z,3.00
2023-04-25T23:29:15.095Z,3.63
2023-04-25T23:31:18.726Z,2.03
2023-04-25T23:33:22.239Z,2.10
2023-04-25T23:35:27.686Z,2.83
2023-04-25T23:37:32.088Z,1.40
2023-04-25T23:39:35.619Z,2.03
2023-04-25T23:41:40.499Z,2.83
2023-04-25T23:43:44.368Z,2.67
2023-04-25T23:45:48.318Z,3.58
2023-04-25T23:47:52.847Z,5.38
2023-04-25T23:49:56.447Z,7.55
2023-04-25T23:52:00.319Z,9.10
2023-04-25T23:54:05.291Z,10.27
2023-04-25T23:56:09.958Z,4.10
2023-04-25T23:58:15.344Z,2.45
